Camden, MI (49232)

12:53 PM EDT on September 04, 2015 (GMT -0400)
Hillsdale Municipal | | Change Station
CLOSE
Current Station
Airport
Location: Hillsdale,
Elevation: 1181 ft
Nearby Weather Stations

Elev 1181 ft 41.92 °N, 84.59 °W | Updated 18 minutes ago

Partly Cloudy
Partly Cloudy
76 °F
Feels Like 76 °F
N
6
Wind Variable Wind from West

Today
High -- | Low -- °F
--% Chance of Precip.
Yesterday
High -- | Low -- °F
Precip. -- in
7:07 AM 8:07 PM
Waning Gibbous, 58% visible
Pressure 30.05 in
Visibility 7.0 miles
Clouds Clear
Dew Point 69 °F
Humidity 79%
Rainfall 0.00 in
Snow Depth Not available.
UV 8 out of 12
Pollen 6.60 out of 12
Air Quality Not available.
Flu Activity Not available.
METAR KJYM 041635Z AUTO 28005KT 7SM CLR 25/21 A3005 RMK AO2 T02460208
Pressure 30.05 in
Visibility 7.0 miles
Clouds Clear
Dew Point 69 °F
Humidity 79%
Rainfall 0.00 in
Snow Depth Not available.
UV 8 out of 12
Pollen 6.60 out of 12
Air Quality Not available.
Flu Activity Not available.
METAR KJYM 041635Z AUTO 28005KT 7SM CLR 25/21 A3005 RMK AO2 T02460208

10-Day Weather Forecast

×

Almanac

Astronomy

Sep. 04, 2015 Rise Set
Actual Time
Civil Twilight
Nautical Twilight
Astronomical Twilight
Moon
Length of Visible Light
Length of Day
Tomorrow will be .
, % of the Moon is Illuminated

Today's Extremes

State Highs State Lows

Community

WunderPhotos

Upload Photos

1,852,226 photos uploaded!

WunderBlogs® & News

Nearby

Air Quality

  Air Quality AQ Index Pollutant
Not available.

Snow Depth

Station Depth Elevation

Earthquake Activity

City Distance Mag. Time & Date
Minimum magnitude displayed is 2.5.

Coastal Water Temperatures

Place Temperature

Stations

Nearby Weather Stations

Station Location Temp. Windchill Dew Point Humidity Wind Precip. Elev Updated Type